createdAt,value
2023-02-04T00:04:42.593Z,73.63
2023-02-04T00:11:05.600Z,73.57
2023-02-04T00:17:25.639Z,73.74
2023-02-04T00:23:48.593Z,73.58
2023-02-04T00:30:08.648Z,73.31
2023-02-04T00:36:31.673Z,73.39
2023-02-04T00:42:51.685Z,73.59
2023-02-04T00:49:14.582Z,73.85
2023-02-04T00:55:34.627Z,73.9
2023-02-04T01:01:57.609Z,73.9
2023-02-04T01:08:17.644Z,73.47
2023-02-04T01:14:40.606Z,74.16
2023-02-04T01:21:00.588Z,73.86
2023-02-04T01:27:23.601Z,73.43
2023-02-04T01:33:43.647Z,73.52
2023-02-04T01:40:06.619Z,73.36
2023-02-04T01:46:26.609Z,73.47
2023-02-04T01:52:49.608Z,73.69
2023-02-04T01:59:09.622Z,73.8
2023-02-04T02:05:32.636Z,74.11
2023-02-04T02:11:52.628Z,74.06
2023-02-04T02:18:15.606Z,74.31
2023-02-04T02:24:35.622Z,74.39
2023-02-04T02:30:58.672Z,74.59
2023-02-04T02:37:18.601Z,75.01
2023-02-04T02:43:41.590Z,75.41
2023-02-04T02:50:01.683Z,76.53
2023-02-04T02:56:24.558Z,77.24
2023-02-04T03:02:44.632Z,77.48
2023-02-04T03:09:07.640Z,77.93
2023-02-04T03:15:27.644Z,79.01
2023-02-04T03:21:50.607Z,79.75
2023-02-04T03:28:10.703Z,80.49
2023-02-04T03:34:33.601Z,81.05
2023-02-04T03:40:53.597Z,81.25
2023-02-04T03:47:16.599Z,81.09
2023-02-04T03:53:36.657Z,81
2023-02-04T03:59:59.590Z,80.84
2023-02-04T04:06:19.616Z,81.08
2023-02-04T04:12:42.637Z,81
2023-02-04T04:36:06.579Z,80.96
2023-02-04T04:42:26.651Z,81.03
2023-02-04T04:48:49.602Z,81.05
2023-02-04T04:55:09.636Z,81.22
2023-02-04T05:01:32.574Z,81.83
2023-02-04T05:07:52.617Z,82.41
2023-02-04T05:14:15.605Z,82.99
2023-02-04T05:20:35.603Z,83.52
2023-02-04T05:26:58.595Z,83.93
2023-02-04T05:33:18.638Z,84.15
2023-02-04T05:39:41.594Z,84.28
2023-02-04T05:46:01.742Z,84.33
2023-02-04T05:52:24.616Z,84.45
2023-02-04T05:58:44.583Z,84.25
2023-02-04T06:05:07.632Z,84.37
2023-02-04T06:11:27.611Z,84.49
2023-02-04T06:17:50.579Z,84.44
2023-02-04T06:24:10.627Z,84.34
2023-02-04T06:30:33.967Z,84.39
2023-02-04T06:36:53.571Z,84.42
2023-02-04T06:43:16.653Z,84.49
2023-02-04T06:49:36.615Z,84.57
2023-02-04T06:55:59.582Z,84.36
2023-02-04T07:02:19.615Z,84.28
2023-02-04T07:08:42.711Z,84.01
2023-02-04T07:15:02.587Z,83.84
2023-02-04T07:21:25.632Z,83.94
2023-02-04T07:27:45.701Z,83.48
2023-02-04T07:34:08.615Z,83.51
2023-02-04T07:40:28.606Z,83.21
2023-02-04T07:46:51.628Z,83.33
2023-02-04T07:53:11.574Z,83.07
2023-02-04T07:59:34.583Z,83.02
2023-02-04T08:05:54.627Z,82.41
2023-02-04T08:12:17.573Z,82.86
2023-02-04T08:18:37.598Z,82.96
2023-02-04T08:25:00.585Z,82.5
2023-02-04T08:31:20.741Z,82.75
2023-02-04T08:37:43.570Z,82.43
2023-02-04T08:44:03.564Z,82.63
2023-02-04T08:50:26.580Z,82.14
2023-02-04T08:56:46.594Z,82.38
2023-02-04T09:03:09.655Z,82.31
2023-02-04T09:09:29.601Z,82.68
2023-02-04T09:15:54.070Z,82.68
2023-02-04T09:22:12.637Z,82.47
2023-02-04T09:28:35.619Z,82.26
2023-02-04T09:34:55.642Z,82.01
2023-02-04T09:51:05.557Z,81.64
2023-02-04T09:57:25.581Z,82
2023-02-04T10:03:48.692Z,81.2
2023-02-04T10:10:08.625Z,80.64
2023-02-04T10:16:31.627Z,79.26
2023-02-04T10:22:51.595Z,78.53
2023-02-04T10:29:14.605Z,78.79
2023-02-04T10:35:34.573Z,77.43
2023-02-04T10:41:57.586Z,78.11
2023-02-04T10:48:17.627Z,77.67
2023-02-04T10:54:40.632Z,78.32
2023-02-04T11:01:00.660Z,77.28
2023-02-04T11:07:23.620Z,76.21
2023-02-04T11:13:43.591Z,74.49
2023-02-04T11:20:06.584Z,74.97
2023-02-04T11:26:26.612Z,75.38
2023-02-04T11:32:49.568Z,75.66
2023-02-04T11:39:09.573Z,73.03
2023-02-04T11:45:32.953Z,72.06
2023-02-04T11:51:52.579Z,72.16
2023-02-04T11:58:15.581Z,72.93
2023-02-04T12:04:35.597Z,72.99
2023-02-04T12:10:58.582Z,71.6
2023-02-04T12:17:18.604Z,70.69
2023-02-04T12:23:41.618Z,71.09
2023-02-04T12:30:01.599Z,70.41
2023-02-04T12:36:24.591Z,70.59
2023-02-04T12:42:44.613Z,70.68
2023-02-04T12:49:09.573Z,68.91
2023-02-04T12:55:27.583Z,69.34
2023-02-04T13:01:50.652Z,68.82
2023-02-04T13:08:10.561Z,70.13
2023-02-04T13:14:33.614Z,70.84
2023-02-04T13:20:53.661Z,71.5
2023-02-04T13:27:16.578Z,70.53
2023-02-04T13:33:36.663Z,70.9
2023-02-04T13:39:59.594Z,71.93
2023-02-04T13:46:19.607Z,69.43
2023-02-04T13:52:42.615Z,68.96
2023-02-04T13:59:02.606Z,68.68
2023-02-04T14:05:25.603Z,67.68
2023-02-04T14:11:45.595Z,65.49
2023-02-04T14:18:08.703Z,64.3
2023-02-04T14:24:28.681Z,64.8
2023-02-04T14:30:51.623Z,65.43
2023-02-04T14:37:11.643Z,63.5
2023-02-04T14:43:34.578Z,64.14
2023-02-04T14:49:54.598Z,62.97
2023-02-04T14:56:17.646Z,62.1
2023-02-04T15:02:37.626Z,61.41
2023-02-04T15:24:50.636Z,62.85
2023-02-04T15:31:13.713Z,63.33
2023-02-04T15:37:33.598Z,63.26
2023-02-04T15:43:56.601Z,63.88
2023-02-04T15:50:16.588Z,65.23
2023-02-04T15:56:39.625Z,65.82
2023-02-04T16:02:59.666Z,67.15
2023-02-04T16:09:22.652Z,67.46
2023-02-04T16:15:42.632Z,67.92
2023-02-04T16:22:05.625Z,68.59
2023-02-04T16:28:25.609Z,69.01
2023-02-04T16:34:48.633Z,69.6
2023-02-04T16:41:08.674Z,70.18
2023-02-04T16:47:31.572Z,71.07
2023-02-04T16:53:51.594Z,70.53
2023-02-04T17:00:14.610Z,70.68
2023-02-04T17:06:34.568Z,71.81
2023-02-04T17:12:57.641Z,72.75
2023-02-04T17:19:17.755Z,73.1
2023-02-04T17:25:40.605Z,73.48
2023-02-04T17:32:00.567Z,74
2023-02-04T17:38:25.567Z,74.2
2023-02-04T17:44:43.586Z,74.74
2023-02-04T17:51:06.600Z,75.39
2023-02-04T17:57:26.597Z,74.95
2023-02-04T18:03:49.645Z,75.7
2023-02-04T18:10:09.574Z,75.81
2023-02-04T18:16:32.662Z,75.82
2023-02-04T18:22:52.643Z,76.43
2023-02-04T18:29:15.653Z,76.48
2023-02-04T18:35:35.605Z,76.29
2023-02-04T18:41:58.598Z,76.5
2023-02-04T18:48:18.574Z,76.44
2023-02-04T18:54:41.577Z,77.06
2023-02-04T19:01:01.640Z,77.2
2023-02-04T19:07:24.639Z,77.7
2023-02-04T19:13:44.603Z,78.48
2023-02-04T19:20:07.640Z,78.25
2023-02-04T19:26:27.592Z,78.13
2023-02-04T19:32:50.607Z,78.13
2023-02-04T19:39:10.610Z,78.26
2023-02-04T19:45:33.856Z,78.51
2023-02-04T19:51:53.628Z,78.71
2023-02-04T19:58:16.572Z,78.67
2023-02-04T20:04:36.569Z,78.31
2023-02-04T20:10:59.642Z,78.61
2023-02-04T20:28:30.584Z,79.65
2023-02-04T20:34:53.563Z,79.82
2023-02-04T20:41:13.598Z,80.08
2023-02-04T20:47:36.643Z,80.41
2023-02-04T20:53:56.570Z,80.42
2023-02-04T21:00:19.605Z,79.95
2023-02-04T21:06:39.856Z,80.77
2023-02-04T21:13:02.604Z,80.58
2023-02-04T21:19:22.594Z,80.74
2023-02-04T21:25:45.611Z,80.49
2023-02-04T21:32:05.595Z,80.53
2023-02-04T21:38:28.564Z,80.65
2023-02-04T21:44:48.632Z,80.84
2023-02-04T21:51:11.594Z,80.92
2023-02-04T21:57:32.063Z,80.96
2023-02-04T22:03:54.677Z,80.74
2023-02-04T22:10:14.584Z,80.76
2023-02-04T22:16:37.582Z,80.61
2023-02-04T22:22:57.675Z,81.29
2023-02-04T22:29:20.591Z,82.38
2023-02-04T22:35:40.644Z,82.63
2023-02-04T22:42:03.601Z,81.86
2023-02-04T22:48:23.894Z,82.67
2023-02-04T22:54:46.611Z,82.62
2023-02-04T23:20:17.584Z,83.2
2023-02-04T23:26:37.607Z,83.21
2023-02-04T23:33:00.561Z,82.99
2023-02-04T23:39:20.744Z,83.12
2023-02-04T23:45:43.617Z,82.98
2023-02-04T23:52:03.597Z,82.86
2023-02-04T23:58:26.599Z,82.85
